createdAt,value
2022-12-24T00:02:42.235Z,84.48
2022-12-24T00:05:44.070Z,84.69
2022-12-24T00:08:45.971Z,84.73
2022-12-24T00:11:47.565Z,84.62
2022-12-24T00:14:49.274Z,84.25
2022-12-24T00:17:51.168Z,84.39
2022-12-24T00:20:53.443Z,84.24
2022-12-24T00:23:55.142Z,84.32
2022-12-24T00:26:56.764Z,84.52
2022-12-24T00:29:58.408Z,84.56
2022-12-24T00:33:00.205Z,84.47
2022-12-24T00:36:01.833Z,84.11
2022-12-24T00:39:03.809Z,84.46
2022-12-24T00:42:05.445Z,84.38
2022-12-24T00:45:07.712Z,84.22
2022-12-24T00:48:09.422Z,84.07
2022-12-24T00:51:11.021Z,83.85
2022-12-24T00:54:14.059Z,84.05
2022-12-24T00:57:15.796Z,84.15
2022-12-24T01:00:18.147Z,84.12
2022-12-24T01:03:19.944Z,84.45
2022-12-24T01:06:22.076Z,84.65
2022-12-24T01:09:24.094Z,84.74
2022-12-24T01:12:25.952Z,84.72
2022-12-24T01:15:27.712Z,85.05
2022-12-24T01:18:29.637Z,84.67
2022-12-24T01:21:31.361Z,84.76
2022-12-24T01:24:33.019Z,84.73
2022-12-24T01:27:34.759Z,84.74
2022-12-24T01:30:36.469Z,84.63
2022-12-24T01:33:38.234Z,84.89
2022-12-24T01:36:39.833Z,85.28
2022-12-24T01:39:41.535Z,85.34
2022-12-24T01:43:05.502Z,84.89
2022-12-24T01:46:24.437Z,84.91
2022-12-24T01:49:26.281Z,85.08
2022-12-24T01:52:34.764Z,85.62
2022-12-24T01:55:36.912Z,85.69
2022-12-24T01:58:40.743Z,85.81
2022-12-24T02:01:42.689Z,86.03
2022-12-24T02:04:49.764Z,85.69
2022-12-24T02:07:51.673Z,85.41
2022-12-24T02:10:54.000Z,85.18
2022-12-24T02:13:59.428Z,85.19
2022-12-24T02:17:21.230Z,85.03
2022-12-24T02:20:42.023Z,85.00
2022-12-24T02:24:02.244Z,84.75
2022-12-24T02:27:24.230Z,84.76
2022-12-24T02:30:31.064Z,84.61
2022-12-24T02:33:37.678Z,84.66
2022-12-24T02:37:19.248Z,84.75
2022-12-24T02:40:27.859Z,84.26
2022-12-24T02:43:35.921Z,84.35
2022-12-24T02:46:37.780Z,84.54
2022-12-24T02:49:43.944Z,84.60
2022-12-24T02:52:47.298Z,84.66
2022-12-24T02:56:00.122Z,84.83
2022-12-24T02:59:41.770Z,84.95
2022-12-24T03:03:08.608Z,85.01
2022-12-24T03:06:38.483Z,85.18
2022-12-24T03:10:31.077Z,84.86
2022-12-24T03:13:32.848Z,85.13
2022-12-24T03:16:34.548Z,84.95
2022-12-24T03:19:36.735Z,85.03
2022-12-24T03:22:39.089Z,84.76
2022-12-24T03:25:43.157Z,85.01
2022-12-24T03:28:45.966Z,85.05
2022-12-24T03:31:50.550Z,84.97
2022-12-24T03:34:52.373Z,85.02
2022-12-24T03:37:53.995Z,85.16
2022-12-24T03:40:55.671Z,85.01
2022-12-24T03:43:57.275Z,85.05
2022-12-24T03:46:58.912Z,84.99
2022-12-24T03:50:00.793Z,85.06
2022-12-24T03:53:05.492Z,85.05
2022-12-24T03:56:07.421Z,85.10
2022-12-24T03:59:09.087Z,84.78
2022-12-24T04:02:10.951Z,84.79
2022-12-24T04:05:18.791Z,84.79
2022-12-24T04:08:20.599Z,84.78
2022-12-24T04:11:22.284Z,84.84
2022-12-24T04:14:24.033Z,84.80
2022-12-24T04:17:25.673Z,85.01
2022-12-24T04:20:27.309Z,84.91
2022-12-24T04:23:31.798Z,85.15
2022-12-24T04:26:33.462Z,84.88
2022-12-24T04:29:35.121Z,85.12
2022-12-24T04:32:36.854Z,85.10
2022-12-24T04:35:41.617Z,85.29
2022-12-24T04:38:44.102Z,85.44
2022-12-24T04:41:45.911Z,85.25
2022-12-24T04:44:47.693Z,85.20
2022-12-24T04:47:49.334Z,85.45
2022-12-24T04:50:50.958Z,85.38
2022-12-24T04:53:52.845Z,85.18
2022-12-24T04:56:54.542Z,85.13
2022-12-24T04:59:56.625Z,85.25
2022-12-24T05:02:58.190Z,84.88
2022-12-24T05:06:04.774Z,84.62
2022-12-24T05:09:06.509Z,84.33
2022-12-24T05:12:08.615Z,84.55
2022-12-24T05:15:10.193Z,84.54
2022-12-24T05:18:12.451Z,84.49
2022-12-24T05:21:19.583Z,84.81
2022-12-24T05:24:39.978Z,85.06
2022-12-24T05:27:47.419Z,85.39
2022-12-24T05:30:52.636Z,85.54
2022-12-24T05:33:55.020Z,85.24
2022-12-24T05:36:56.722Z,85.10
2022-12-24T05:39:58.453Z,85.25
2022-12-24T05:43:00.265Z,85.37
2022-12-24T05:46:02.530Z,85.92
2022-12-24T05:49:04.281Z,85.89
2022-12-24T05:52:05.892Z,85.78
2022-12-24T05:55:09.337Z,85.86
2022-12-24T05:58:11.077Z,85.84
2022-12-24T06:01:12.794Z,86.43
2022-12-24T06:04:14.609Z,85.93
2022-12-24T06:07:16.306Z,86.03
2022-12-24T06:10:18.063Z,86.05
2022-12-24T06:13:19.554Z,85.98
2022-12-24T06:16:22.801Z,85.84
2022-12-24T06:19:24.758Z,85.78
2022-12-24T06:22:26.306Z,85.77
2022-12-24T06:25:28.102Z,86.12
2022-12-24T06:28:34.246Z,86.44
2022-12-24T06:31:36.082Z,86.74
2022-12-24T06:34:37.775Z,86.98
2022-12-24T06:37:39.411Z,86.57
2022-12-24T06:40:42.939Z,86.32
2022-12-24T06:43:50.818Z,86.21
2022-12-24T06:46:52.570Z,86.20
2022-12-24T06:49:54.229Z,86.02
2022-12-24T06:52:56.052Z,85.84
2022-12-24T06:56:08.777Z,85.21
2022-12-24T06:59:10.604Z,85.11
2022-12-24T07:02:12.387Z,85.01
2022-12-24T07:05:14.748Z,85.22
2022-12-24T07:08:16.554Z,85.06
2022-12-24T07:11:18.339Z,85.22
2022-12-24T07:14:20.057Z,85.85
2022-12-24T07:17:21.948Z,85.81
2022-12-24T07:20:23.665Z,87.06
2022-12-24T07:23:25.830Z,87.88
2022-12-24T07:26:27.553Z,87.61
2022-12-24T07:29:29.230Z,87.62
2022-12-24T07:32:30.944Z,87.55
2022-12-24T07:35:32.622Z,87.50
2022-12-24T07:38:34.571Z,87.50
2022-12-24T07:41:41.500Z,87.62
2022-12-24T07:44:43.502Z,87.29
2022-12-24T07:47:45.113Z,87.98
2022-12-24T07:50:50.061Z,88.24
2022-12-24T07:53:51.790Z,88.23
2022-12-24T07:56:53.353Z,88.83
2022-12-24T07:59:55.047Z,88.36
2022-12-24T08:02:56.869Z,87.88
2022-12-24T08:05:58.829Z,87.61
2022-12-24T08:09:00.563Z,87.45
2022-12-24T08:12:05.248Z,87.45
2022-12-24T08:15:07.369Z,87.66
2022-12-24T08:18:10.432Z,87.94
2022-12-24T08:21:12.168Z,87.70
2022-12-24T08:24:14.041Z,87.99
2022-12-24T08:27:15.706Z,87.76
2022-12-24T08:30:20.995Z,87.60
2022-12-24T08:33:23.528Z,87.90
2022-12-24T08:36:25.241Z,87.76
2022-12-24T08:39:26.853Z,87.85
2022-12-24T08:42:28.558Z,87.66
2022-12-24T08:45:33.248Z,87.40
2022-12-24T08:48:39.813Z,87.46
2022-12-24T08:51:41.500Z,86.87
2022-12-24T08:54:43.128Z,86.73
2022-12-24T08:57:44.702Z,86.65
2022-12-24T09:00:46.417Z,86.94
2022-12-24T09:03:48.405Z,87.00
2022-12-24T09:06:50.269Z,86.86
2022-12-24T09:09:52.028Z,86.90
2022-12-24T09:12:53.705Z,86.82
2022-12-24T09:15:55.481Z,86.81
2022-12-24T09:18:58.451Z,86.47
2022-12-24T09:22:00.117Z,86.49
2022-12-24T09:25:01.829Z,86.47
2022-12-24T09:28:03.598Z,86.18
2022-12-24T09:31:06.101Z,84.96
2022-12-24T09:34:08.042Z,84.42
2022-12-24T09:37:09.868Z,84.14
2022-12-24T09:40:23.025Z,84.22
2022-12-24T09:43:28.245Z,84.41
2022-12-24T09:46:37.425Z,84.70
2022-12-24T09:49:42.565Z,84.63
2022-12-24T09:52:45.732Z,84.58
2022-12-24T09:55:52.860Z,84.40
2022-12-24T09:59:04.220Z,84.31
2022-12-24T10:02:11.155Z,84.22
2022-12-24T10:05:18.561Z,84.19
2022-12-24T10:08:32.010Z,84.23
2022-12-24T10:12:01.619Z,84.15
2022-12-24T10:15:36.749Z,83.73
2022-12-24T10:19:14.830Z,83.71
2022-12-24T10:22:34.396Z,83.99
2022-12-24T10:25:43.301Z,84.03
2022-12-24T10:28:54.063Z,83.62
2022-12-24T10:32:01.611Z,83.83
2022-12-24T10:35:21.222Z,83.89
2022-12-24T10:38:22.989Z,84.08
2022-12-24T10:41:28.383Z,84.21
2022-12-24T10:44:32.114Z,84.43
2022-12-24T10:47:35.056Z,84.56
2022-12-24T10:50:47.255Z,84.70
2022-12-24T10:53:53.060Z,84.82
2022-12-24T10:57:01.590Z,84.76
2022-12-24T11:00:06.369Z,84.95
2022-12-24T11:03:22.427Z,85.05
2022-12-24T11:06:24.174Z,84.94
2022-12-24T11:09:29.263Z,84.80
2022-12-24T11:12:37.943Z,84.53
2022-12-24T11:15:39.746Z,84.50
2022-12-24T11:18:51.178Z,84.39
2022-12-24T11:22:03.556Z,84.24
2022-12-24T11:25:20.289Z,83.59
2022-12-24T11:28:26.268Z,83.27
2022-12-24T11:31:29.474Z,82.47
2022-12-24T11:34:33.064Z,81.53
2022-12-24T11:37:35.003Z,80.86
2022-12-24T11:40:39.144Z,80.89
2022-12-24T11:43:46.808Z,80.35
2022-12-24T11:46:52.419Z,80.10
2022-12-24T11:49:59.276Z,80.27
2022-12-24T11:53:21.089Z,80.05
2022-12-24T11:56:32.649Z,80.00
2022-12-24T11:59:40.950Z,80.02
2022-12-24T12:02:44.002Z,79.78
2022-12-24T12:05:45.905Z,80.13
2022-12-24T12:08:48.155Z,80.08
2022-12-24T12:12:02.223Z,80.17
2022-12-24T12:15:25.558Z,80.17
2022-12-24T12:18:35.881Z,80.13
2022-12-24T12:21:41.695Z,80.24
2022-12-24T12:24:48.365Z,80.45
2022-12-24T12:27:53.220Z,80.21
2022-12-24T12:31:02.849Z,79.98
2022-12-24T12:34:13.963Z,79.95
2022-12-24T12:37:22.095Z,79.99
2022-12-24T12:40:34.886Z,80.14
2022-12-24T12:44:14.982Z,80.48
2022-12-24T12:47:35.836Z,80.38
2022-12-24T12:50:46.333Z,81.04
2022-12-24T12:54:07.093Z,81.13
2022-12-24T12:57:12.198Z,81.36
2022-12-24T13:00:18.167Z,81.36
2022-12-24T13:03:48.166Z,81.10
2022-12-24T13:07:34.247Z,81.49
2022-12-24T13:10:53.233Z,81.65
2022-12-24T13:14:16.798Z,82.21
2022-12-24T13:17:18.389Z,82.68
2022-12-24T13:20:20.020Z,82.62
2022-12-24T13:23:26.661Z,82.93
2022-12-24T13:26:28.325Z,83.22
2022-12-24T13:29:40.863Z,82.92
2022-12-24T13:32:52.639Z,82.94
2022-12-24T13:35:58.414Z,83.06
2022-12-24T13:39:00.271Z,83.08
2022-12-24T13:42:01.896Z,83.14
2022-12-24T13:45:22.800Z,82.94
2022-12-24T13:48:33.355Z,83.11
2022-12-24T13:51:35.053Z,83.23
2022-12-24T13:54:43.277Z,83.45
2022-12-24T13:57:53.408Z,83.62
2022-12-24T14:01:01.168Z,83.33
2022-12-24T14:04:04.415Z,83.34
2022-12-24T14:07:06.276Z,83.81
2022-12-24T14:10:20.767Z,83.70
2022-12-24T14:13:38.036Z,83.80
2022-12-24T14:16:46.178Z,84.01
2022-12-24T14:19:52.052Z,84.13
2022-12-24T14:22:54.057Z,84.05
2022-12-24T14:25:57.499Z,84.32
2022-12-24T14:29:36.587Z,84.47
2022-12-24T14:32:40.399Z,84.14
2022-12-24T14:35:42.249Z,84.51
2022-12-24T14:38:44.815Z,84.62
2022-12-24T14:41:53.719Z,84.70
2022-12-24T14:45:29.711Z,85.06
2022-12-24T14:48:45.963Z,85.35
2022-12-24T14:52:00.143Z,86.10
2022-12-24T14:55:32.112Z,86.74
2022-12-24T14:58:33.984Z,86.48
2022-12-24T15:01:35.672Z,86.67
2022-12-24T15:04:37.673Z,86.81
2022-12-24T15:07:47.682Z,86.53
2022-12-24T15:10:55.247Z,86.24
2022-12-24T15:13:59.375Z,85.63
2022-12-24T15:17:04.713Z,85.78
2022-12-24T15:20:07.716Z,85.85
2022-12-24T15:23:19.061Z,86.38
2022-12-24T15:26:27.362Z,86.14
2022-12-24T15:29:32.416Z,85.90
2022-12-24T15:32:34.392Z,86.36
2022-12-24T15:35:52.319Z,86.20
2022-12-24T15:38:55.159Z,86.13
2022-12-24T15:42:15.430Z,86.04
2022-12-24T15:45:28.054Z,85.96
2022-12-24T15:48:31.570Z,86.20
2022-12-24T15:51:38.437Z,86.55
2022-12-24T15:54:52.145Z,85.97
2022-12-24T15:57:57.448Z,85.98
2022-12-24T16:01:17.703Z,85.72
2022-12-24T16:04:25.450Z,85.73
2022-12-24T16:07:47.361Z,85.75
2022-12-24T16:10:50.014Z,85.82
2022-12-24T16:13:57.695Z,86.01
2022-12-24T16:16:59.485Z,86.13
2022-12-24T16:20:06.876Z,86.16
2022-12-24T16:23:17.652Z,85.90
2022-12-24T16:26:19.688Z,86.20
2022-12-24T16:29:22.473Z,86.38
2022-12-24T16:32:34.818Z,86.36
2022-12-24T16:35:38.597Z,86.41
2022-12-24T16:38:59.132Z,86.36
2022-12-24T16:42:21.787Z,86.45
2022-12-24T16:45:23.545Z,86.55
2022-12-24T16:48:25.676Z,86.47
2022-12-24T16:51:27.295Z,86.53
2022-12-24T16:54:30.171Z,86.47
2022-12-24T16:57:33.334Z,87.40
2022-12-24T17:00:36.310Z,87.40
2022-12-24T17:03:38.109Z,87.25
2022-12-24T17:06:39.958Z,87.08
2022-12-24T17:09:42.362Z,86.96
2022-12-24T17:12:44.222Z,86.86
2022-12-24T17:15:45.991Z,86.89
2022-12-24T17:18:48.768Z,86.87
2022-12-24T17:21:50.510Z,86.81
2022-12-24T17:24:52.776Z,86.64
2022-12-24T17:27:54.697Z,86.43
2022-12-24T17:30:58.811Z,86.33
2022-12-24T17:34:00.679Z,86.19
2022-12-24T17:37:02.462Z,86.26
2022-12-24T17:40:04.699Z,86.08
2022-12-24T17:43:06.474Z,86.23
2022-12-24T17:46:16.574Z,86.09
2022-12-24T17:49:18.244Z,86.19
2022-12-24T17:52:19.999Z,86.10
2022-12-24T17:55:23.770Z,85.98
2022-12-24T17:58:25.496Z,85.91
2022-12-24T18:01:30.534Z,86.12
2022-12-24T18:04:32.540Z,86.41
2022-12-24T18:07:34.183Z,86.49
2022-12-24T18:10:35.722Z,86.55
2022-12-24T18:13:37.564Z,86.39
2022-12-24T18:16:40.511Z,86.31
2022-12-24T18:19:42.388Z,86.08
2022-12-24T18:22:43.977Z,86.05
2022-12-24T18:25:45.659Z,85.73
2022-12-24T18:28:47.517Z,85.56
2022-12-24T18:31:49.399Z,85.51
2022-12-24T18:34:51.778Z,85.45
2022-12-24T18:37:53.601Z,85.34
2022-12-24T18:40:55.315Z,85.15
2022-12-24T18:43:56.990Z,85.24
2022-12-24T18:46:58.900Z,85.30
2022-12-24T18:50:00.656Z,85.35
2022-12-24T18:53:02.935Z,85.24
2022-12-24T18:56:05.485Z,85.28
2022-12-24T18:59:07.212Z,85.26
2022-12-24T19:02:09.502Z,85.11
2022-12-24T19:05:11.771Z,85.05
2022-12-24T19:08:47.240Z,85.03
2022-12-24T19:11:36.918Z,85.01
2022-12-24T19:14:39.538Z,84.99
2022-12-24T19:17:41.837Z,85.04
2022-12-24T19:20:43.712Z,84.92
2022-12-24T19:23:47.141Z,84.94
2022-12-24T19:26:49.058Z,84.89
2022-12-24T19:29:50.740Z,84.90
2022-12-24T19:32:52.426Z,84.93
2022-12-24T19:35:54.128Z,85.11
2022-12-24T19:38:57.233Z,85.24
2022-12-24T19:42:00.257Z,85.21
2022-12-24T19:45:01.990Z,85.08
2022-12-24T19:48:03.863Z,84.91
2022-12-24T19:51:07.823Z,84.99
2022-12-24T19:54:18.681Z,84.94
2022-12-24T19:57:21.171Z,84.91
2022-12-24T20:00:23.013Z,84.77
2022-12-24T20:03:24.808Z,84.82
2022-12-24T20:06:28.294Z,84.51
2022-12-24T20:09:32.769Z,84.55
2022-12-24T20:12:34.491Z,84.62
2022-12-24T20:15:42.866Z,84.76
2022-12-24T20:18:45.323Z,84.75
2022-12-24T20:21:47.089Z,84.81
2022-12-24T20:24:48.807Z,84.73
2022-12-24T20:27:50.464Z,84.69
2022-12-24T20:30:52.292Z,84.78
2022-12-24T20:33:54.654Z,84.70
2022-12-24T20:36:56.354Z,84.64
2022-12-24T20:39:58.163Z,84.81
2022-12-24T20:42:59.700Z,84.80
2022-12-24T20:46:02.264Z,84.92
2022-12-24T20:49:05.435Z,84.89
2022-12-24T20:52:07.883Z,84.86
2022-12-24T20:55:09.686Z,84.70
2022-12-24T20:58:13.317Z,84.52
2022-12-24T21:01:18.590Z,84.70
2022-12-24T21:04:20.525Z,84.53
2022-12-24T21:07:22.208Z,84.67
2022-12-24T21:10:26.763Z,84.65
2022-12-24T21:13:32.432Z,84.64
2022-12-24T21:16:34.533Z,84.80
2022-12-24T21:19:36.342Z,84.88
2022-12-24T21:22:38.768Z,84.95
2022-12-24T21:25:40.579Z,84.97
2022-12-24T21:28:43.981Z,85.19
2022-12-24T21:31:46.354Z,85.15
2022-12-24T21:34:48.227Z,85.30
2022-12-24T21:37:49.862Z,85.09
2022-12-24T21:41:01.492Z,84.87
2022-12-24T21:44:03.182Z,84.96
2022-12-24T21:47:04.883Z,84.92
2022-12-24T21:50:31.611Z,85.15
2022-12-24T21:53:52.876Z,85.15
2022-12-24T21:57:22.627Z,85.02
2022-12-24T22:00:30.749Z,84.94
2022-12-24T22:03:32.510Z,84.94
2022-12-24T22:06:53.107Z,85.00
2022-12-24T22:10:13.591Z,84.77
2022-12-24T22:13:15.389Z,84.91
2022-12-24T22:16:17.214Z,84.83
2022-12-24T22:19:19.115Z,84.80
2022-12-24T22:22:21.842Z,85.00
2022-12-24T22:25:23.501Z,84.97
2022-12-24T22:28:25.093Z,84.79
2022-12-24T22:31:27.457Z,84.73
2022-12-24T22:34:29.225Z,84.62
2022-12-24T22:37:30.772Z,84.76
2022-12-24T22:40:32.684Z,84.78
2022-12-24T22:43:34.679Z,84.69
2022-12-24T22:46:36.556Z,84.64
2022-12-24T22:49:38.399Z,84.69
2022-12-24T22:52:40.078Z,84.63
2022-12-24T22:55:41.766Z,84.61
2022-12-24T22:58:43.699Z,84.71
2022-12-24T23:01:46.794Z,84.83
2022-12-24T23:04:48.813Z,84.74
2022-12-24T23:07:50.487Z,84.95
2022-12-24T23:10:53.215Z,84.77
2022-12-24T23:14:14.185Z,84.89
2022-12-24T23:17:16.528Z,85.05
2022-12-24T23:20:18.290Z,85.22
2022-12-24T23:23:20.025Z,85.37
2022-12-24T23:26:22.309Z,85.27
2022-12-24T23:29:24.250Z,85.26
2022-12-24T23:32:25.942Z,84.96
2022-12-24T23:35:27.467Z,85.19
2022-12-24T23:38:29.341Z,85.12
2022-12-24T23:41:30.954Z,85.15
2022-12-24T23:44:33.027Z,85.01
2022-12-24T23:47:34.855Z,84.94
2022-12-24T23:50:37.024Z,84.88
2022-12-24T23:53:39.327Z,84.70
2022-12-24T23:56:40.932Z,84.56
2022-12-24T23:59:42.687Z,84.61
